ESMI weather

Public forecast

Using degrees Celsius for public forecast. Weather courtesy of forecast.io.

Closest aviation weather report (METAR) to Sjöbo/Sövde Airport

Closest report is Malmö Sturup Airport, 10.8 nm (20.0 km) WSW. Retrieved 2020/08/13 23:20 UTC (21 minutes ago):

ESMS 132320Z 09002KT CAVOK 11/11 Q1016

Closest aviation forecast (TAF) to Sjöbo/Sövde Airport

Closest forecast is Malmö Sturup Airport, 10.8 nm (20.0 km) WSW. Retrieved 2020/08/13 18:00 UTC (6 hours ago):

TAF ESMS 131711Z 1318/1418 09006KT CAVOK TEMPO 1402/1405 3500 BR